LFKJ Airport Information

Runway Information
Runway 02 Length 7897 ft width 148 ft
Elevation 15 ft Threshold 0 ft Heading 25
Runway 20 Length 7897 ft Width 148 ft
Elevation 18 ft Threshold 744 ft Heading 205
Airport Frequencies
Type AFIS Name AFIS Frequency 119.825 MHZ
Type APP Name AJACCIO AP Frequency 121.05 MHZ
Type ATIS Name AJACCIO AT Frequency 126.925 MHZ
Type GND Name AJACCIO GN Frequency 121.7 MHZ
Type TWR Name AJACCIO TW Frequency 118.075 MHZ
Airport Navaids
Type NDB Name Ajaccio/Campo Dell Oro Frequency 341 KHZ
Airport Weather Information & NOTAM
ADDS - METARS form results

(1323 UTC 19 June 2019)
Data provider http://aviationweather.gov/metar/data/
 
METAR text: LFKJ 191300Z AUTO 19010KT CAVOK 27/16 Q1014 NOSIG
Conditions at: LFKJ (AJACCIO/CAMPO OR, FR) observed 1300 UTC 19 June 2019
Temperature: 27.0°C (81°F)
Dewpoint: 16.0°C (61°F) [RH = 51%]
Pressure (altimeter): 29.94 inches Hg (1014.0 mb)
Winds: from the S (190 degrees) at 12 MPH (10 knots; 5.1 m/s)
Visibility: 6 or more miles (10+ km)
Ceiling: ceiling and visibility are OK
Clouds: unknown
Weather: no significant weather observed at this time

METAR text: LFKJ 191230Z AUTO 19010KT CAVOK 27/16 Q1014 NOSIG
Conditions at: LFKJ (AJACCIO/CAMPO OR, FR) observed 1230 UTC 19 June 2019
Temperature: 27.0°C (81°F)
Dewpoint: 16.0°C (61°F) [RH = 51%]
Pressure (altimeter): 29.94 inches Hg (1014.0 mb)
Winds: from the S (190 degrees) at 12 MPH (10 knots; 5.1 m/s)
Visibility: 6 or more miles (10+ km)
Ceiling: ceiling and visibility are OK
Clouds: unknown
Weather: no significant weather observed at this time

Forecast for: LFKJ (AJACCIO/CAMPO OR, FR)
Text: TAF LFKJ 190800Z 1909/2009 24010KT CAVOK
Forecast period: 0900 to 1800 UTC 19 June 2019
Forecast type: FROM: standard forecast or significant change
Winds: from the WSW (240 degrees) at 12 MPH (10 knots; 5.1 m/s)
Visibility: 6 or more miles 10+ km)
Ceiling: unknown
Clouds: missing
Weather: NSW  (no significant weather)
Text: BECMG 1918/1921 04006KT
Forecast period: 1800 UTC 19 June 2019 to 0900 UTC 20 June 2019
Forecast type: BECOMING: Conditions expected to become as follows by 2100 UTC 19 June 2019
Winds: from the NE (40 degrees) at 7 MPH (6 knots; 3.1 m/s)
Visibility: 6 or more miles 10+ km)
Ceiling: unknown
Clouds: missing
Weather: NSW  (no significant weather)